ECP weather

Northwest Florida Beaches International Airport
Panama City Beach, Florida, United States

Public forecast

Using degrees Fahrenheit for public forecast. Weather courtesy of forecast.io.

METAR (pilot weather report)

Retrieved 2018/02/25 04:53 UTC (51 minutes ago):

KECP 250453Z AUTO 13008KT 10SM OVC007 22/20 A3011 RMK AO2 SLP208 T02170200

TAF (pilot weather forecast)

Forecast is more than 12 hours old.

Retrieved 2018/02/24 00:30 UTC (1 day ago):

TAF KECP 242326Z 2500/2524 15008KT P6SM BKN015 FM250300 15004KT 4SM BR BKN008 FM250800 17003KT 2SM BR BKN002 FM251400 16011KT P6SM BKN035